This is the latest recevied weather packets stored in our database for station/object K6MLE. If no packets are shown the sender has not sent any weather packets the latest 10 day(s).
| Time | Temp. | Humidity | Pressure | Rain* | Wind** | Luminosity | Snow |
|---|---|---|---|---|---|---|---|
| 1777554636 | 7.22° C | 93% | 1014.1 hPa | 0 mm | - | - | - |
| 1777554016 | 7.22° C | 93% | 1014.1 hPa | 0 mm | - | - | - |
| 1777552216 | 7.22° C | 93% | 1014.1 hPa | 0 mm | - | - | - |
| 1777551621 | 7.78° C | 93% | 1014.3 hPa | 0 mm | - | - | - |
| 1777551016 | 7.78° C | 93% | 1014.3 hPa | 0 mm | - | - | - |
| 1777550418 | 7.78° C | 93% | 1014.3 hPa | 0 mm | - | - | - |
| 1777544421 | 7.78° C | 93% | 1015.2 hPa | 0 mm | - | - | - |
| 1777540816 | 7.78° C | 92% | 1015.8 hPa | 0 mm | - | - | - |
| 1777538416 | 8.33° C | 90% | 1016.2 hPa | 0 mm | - | - | - |
| 1777537816 | 8.33° C | 90% | 1016.2 hPa | 0 mm | - | - | - |
| 1777531821 | 9.44° C | 88% | 1016.5 hPa | 0 mm | - | - | - |
| 1777530036 | 10° C | 86% | 1016.6 hPa | 0 mm | - | - | - |
| 1777520417 | 13.33° C | 71% | 1015.1 hPa | 0 mm | - | - | - |
| 1777518618 | 15° C | 66% | 1014.7 hPa | 0 mm | - | - | - |
| 1777514417 | 17.78° C | 53% | 1014.5 hPa | 0 mm | - | - | - |
| 1777511417 | 20° C | 42% | 1015.1 hPa | 0 mm | - | - | - |
| 1777510817 | 20.56° C | 42% | 1015.1 hPa | 0 mm | - | - | - |
| 1777506617 | 21.67° C | 41% | 1015.7 hPa | 0 mm | - | - | - |
| 1777504817 | 22.22° C | 39% | 1016.2 hPa | 0 mm | - | - | - |
| 1777503617 | 22.22° C | 39% | 1016.5 hPa | 0 mm | - | - | - |
| 1777501217 | 21.67° C | 42% | 1016.9 hPa | 0 mm | - | - | - |
| 1777500622 | 21.67° C | 42% | 1017 hPa | 0 mm | - | - | - |
| 1777498217 | 21.67° C | 45% | 1017.3 hPa | 0 mm | - | - | - |
| 1777496417 | 21.11° C | 46% | 1017.3 hPa | 0 mm | - | - | - |
| 1777494016 | 21.11° C | 46% | 1017.4 hPa | 0 mm | - | - | - |
* Rain latest hour (hover to see other rain measurements)
** Current wind speed in m/s (hover to see current wind gust speed)